Time;durP1;ratioP1;P1;durP2;ratioP2;P2;SDS_P1;SDS_P2;PMS_P1;PMS_P2;Temp;Humidity;BMP_temperature;BMP_pressure;BME280_temperature;BME280_humidity;BME280_pressure;Samples;Min_cycle;Max_cycle;Signal;HPM_P1;HPM_P2
2023/10/16 00:00:53;;;;;;;7.28;5.25;;;7.60;99.90;;;;;;2103390;28;20665;-71
2023/10/16 00:01:54;;;;;;;7.68;5.78;;;7.60;99.90;;;;;;2098986;28;20435;-73
2023/10/16 00:03:02;;;;;;;6.53;4.97;;;7.60;99.90;;;;;;2099407;28;20031;-73
2023/10/16 00:04:04;;;;;;;7.65;4.68;;;7.60;99.90;;;;;;2101315;28;20459;-73
2023/10/16 00:05:08;;;;;;;8.55;4.95;;;7.60;99.90;;;;;;2101872;28;20460;-71
2023/10/16 00:06:12;;;;;;;5.47;4.97;;;7.50;99.90;;;;;;2092512;28;20024;-73
2023/10/16 00:07:14;;;;;;;6.82;4.97;;;7.50;99.90;;;;;;2094784;28;20111;-72
2023/10/16 00:08:19;;;;;;;7.63;5.63;;;7.60;99.90;;;;;;2102396;28;20519;-74
2023/10/16 00:09:22;;;;;;;9.57;5.93;;;7.60;99.90;;;;;;2098525;28;20060;-73
2023/10/16 00:10:25;;;;;;;7.38;5.38;;;7.50;99.90;;;;;;2100075;28;20035;-72
2023/10/16 00:11:25;;;;;;;6.85;6.05;;;7.50;99.90;;;;;;2102156;28;20024;-72
2023/10/16 00:12:29;;;;;;;8.63;6.20;;;7.60;99.90;;;;;;2103136;28;20024;-73
2023/10/16 00:13:30;;;;;;;7.22;5.28;;;7.50;99.90;;;;;;2102954;28;20056;-72
2023/10/16 00:14:31;;;;;;;7.22;5.70;;;7.50;99.90;;;;;;2099108;28;20020;-72
2023/10/16 00:15:40;;;;;;;9.55;6.05;;;7.50;99.90;;;;;;2098842;28;20740;-72
2023/10/16 00:16:44;;;;;;;7.65;5.55;;;7.50;99.90;;;;;;2099967;28;20036;-72
2023/10/16 00:17:45;;;;;;;8.65;5.68;;;7.50;99.90;;;;;;2098801;28;20020;-72
2023/10/16 00:18:46;;;;;;;6.47;5.25;;;7.50;99.90;;;;;;2098882;28;20103;-73
2023/10/16 00:19:46;;;;;;;6.43;5.00;;;7.50;99.90;;;;;;2097682;28;20024;-73
2023/10/16 00:20:48;;;;;;;7.85;5.72;;;7.50;99.90;;;;;;2101170;28;20095;-73
2023/10/16 00:21:52;;;;;;;6.88;5.55;;;7.50;99.90;;;;;;2099963;28;20024;-72
2023/10/16 00:22:52;;;;;;;6.88;5.38;;;7.50;99.90;;;;;;2100730;28;20019;-72
2023/10/16 00:23:54;;;;;;;7.38;5.50;;;7.50;99.90;;;;;;2100106;28;20033;-72
2023/10/16 00:24:58;;;;;;;8.13;5.75;;;7.50;99.90;;;;;;2099571;28;20635;-72
2023/10/16 00:25:59;;;;;;;7.38;6.18;;;7.50;99.90;;;;;;2103318;28;20032;-72
2023/10/16 00:27:00;;;;;;;6.97;5.25;;;7.50;99.90;;;;;;2102353;28;20024;-73
2023/10/16 00:28:01;;;;;;;7.82;4.93;;;7.50;99.90;;;;;;2098843;28;20048;-72
2023/10/16 00:29:17;;;;;;;5.97;5.38;;;7.50;99.90;;;;;;2107697;28;20043;-72
2023/10/16 00:30:17;;;;;;;8.00;6.18;;;7.50;99.90;;;;;;2100368;28;20028;-73
2023/10/16 00:31:21;;;;;;;7.47;5.80;;;7.40;99.90;;;;;;2100480;28;20024;-72
2023/10/16 00:32:22;;;;;;;5.85;4.90;;;7.40;99.90;;;;;;2099003;28;20020;-72
2023/10/16 00:33:22;;;;;;;8.57;5.95;;;7.50;99.90;;;;;;2099597;28;20024;-71
2023/10/16 00:34:23;;;;;;;7.88;5.22;;;7.40;99.90;;;;;;2092230;28;20035;-73
2023/10/16 00:35:24;;;;;;;7.78;5.95;;;7.40;99.90;;;;;;2095602;28;20024;-72
2023/10/16 00:36:25;;;;;;;7.43;5.60;;;7.40;99.90;;;;;;2098015;28;20024;-72
2023/10/16 00:37:27;;;;;;;8.63;5.38;;;7.50;99.90;;;;;;2108394;28;20117;-72
2023/10/16 00:38:36;;;;;;;7.47;5.88;;;7.40;99.90;;;;;;2099815;28;20042;-73
2023/10/16 00:39:37;;;;;;;7.60;5.88;;;7.40;99.90;;;;;;2093963;28;20052;-72
2023/10/16 00:40:44;;;;;;;8.52;6.00;;;7.40;99.90;;;;;;2099836;28;20023;-73
2023/10/16 00:41:46;;;;;;;6.25;5.10;;;7.40;99.90;;;;;;2101359;28;20149;-73
2023/10/16 00:42:48;;;;;;;6.70;4.85;;;7.40;99.90;;;;;;2092234;28;20167;-72
2023/10/16 00:43:48;;;;;;;6.07;5.47;;;7.40;99.90;;;;;;2093755;28;20033;-72
2023/10/16 00:44:56;;;;;;;7.35;5.10;;;7.40;99.90;;;;;;2100563;28;20083;-72
2023/10/16 00:46:11;;;;;;;7.70;5.80;;;7.40;99.90;;;;;;2099689;28;20020;-72
2023/10/16 00:47:12;;;;;;;8.15;5.63;;;7.40;99.90;;;;;;2100359;28;20363;-72
2023/10/16 00:48:17;;;;;;;9.15;5.70;;;7.40;99.90;;;;;;2102843;28;20112;-72
2023/10/16 00:49:20;;;;;;;6.25;5.47;;;7.40;99.90;;;;;;2100661;28;20016;-72
2023/10/16 00:50:23;;;;;;;7.97;6.15;;;7.40;99.90;;;;;;2100695;28;20081;-72
2023/10/16 00:51:24;;;;;;;7.40;5.70;;;7.40;99.90;;;;;;2091076;28;20186;-72
2023/10/16 00:52:25;;;;;;;8.18;5.75;;;7.40;99.90;;;;;;2099491;28;20025;-73
2023/10/16 00:53:27;;;;;;;6.28;5.10;;;7.40;99.90;;;;;;2099000;28;20024;-73
2023/10/16 00:54:30;;;;;;;5.57;5.07;;;7.40;99.90;;;;;;2098421;28;20016;-73
2023/10/16 00:55:34;;;;;;;7.60;5.30;;;7.40;99.90;;;;;;2107570;28;20068;-75
2023/10/16 00:56:35;;;;;;;7.80;5.72;;;7.40;99.90;;;;;;2106113;28;20020;-74
2023/10/16 00:57:36;;;;;;;7.40;5.28;;;7.40;99.90;;;;;;2098215;28;20029;-74
2023/10/16 00:58:37;;;;;;;7.30;5.47;;;7.40;99.90;;;;;;2099508;28;20032;-75
2023/10/16 00:59:39;;;;;;;8.98;5.75;;;7.30;99.90;;;;;;2102410;28;20020;-74
2023/10/16 01:00:45;;;;;;;8.38;5.78;;;7.30;99.90;;;;;;2102278;28;20115;-74
2023/10/16 01:01:46;;;;;;;7.40;5.50;;;7.30;99.90;;;;;;2099638;28;20103;-75
2023/10/16 01:02:47;;;;;;;7.60;5.30;;;7.30;99.90;;;;;;2098885;28;20111;-74
2023/10/16 01:03:48;;;;;;;7.65;6.38;;;7.40;99.90;;;;;;2098766;28;20032;-74
2023/10/16 01:04:50;;;;;;;7.72;5.40;;;7.30;99.90;;;;;;2098247;28;20583;-75
2023/10/16 01:05:51;;;;;;;7.22;5.80;;;7.30;99.90;;;;;;2096691;28;20115;-75
2023/10/16 01:06:51;;;;;;;9.15;6.20;;;7.30;99.90;;;;;;2098545;28;20032;-75
2023/10/16 01:07:52;;;;;;;8.27;6.15;;;7.30;99.90;;;;;;2099634;28;20020;-74
2023/10/16 01:08:52;;;;;;;9.10;6.00;;;7.40;99.90;;;;;;2096492;28;20157;-75
2023/10/16 01:09:53;;;;;;;6.85;6.10;;;7.30;99.90;;;;;;2097229;28;20020;-75
2023/10/16 01:10:57;;;;;;;6.45;5.43;;;7.40;99.90;;;;;;2099630;28;20028;-75
2023/10/16 01:11:58;;;;;;;8.00;5.65;;;7.30;99.90;;;;;;2100343;28;20092;-74
2023/10/16 01:13:01;;;;;;;7.57;5.68;;;7.30;99.90;;;;;;2101151;28;20105;-75
2023/10/16 01:14:03;;;;;;;7.18;5.70;;;7.30;99.90;;;;;;2092084;28;20108;-75
2023/10/16 01:15:06;;;;;;;7.03;5.35;;;7.40;99.90;;;;;;2100421;28;20107;-74
2023/10/16 01:16:09;;;;;;;7.45;5.75;;;7.30;99.90;;;;;;2099900;28;20599;-72
2023/10/16 01:17:10;;;;;;;8.27;6.50;;;7.30;99.90;;;;;;2099259;28;20024;-72
2023/10/16 01:18:13;;;;;;;6.88;5.78;;;7.30;99.90;;;;;;2099629;28;20032;-73
2023/10/16 01:19:19;;;;;;;7.03;5.65;;;7.30;99.90;;;;;;2100189;28;20051;-72
2023/10/16 01:20:20;;;;;;;8.57;6.22;;;7.30;99.90;;;;;;2099800;28;20119;-73
2023/10/16 01:21:20;;;;;;;6.65;5.05;;;7.30;99.90;;;;;;2099639;28;20031;-73
2023/10/16 01:22:22;;;;;;;6.43;5.70;;;7.30;99.90;;;;;;2102893;28;20024;-72
2023/10/16 01:23:25;;;;;;;6.25;5.65;;;7.30;99.90;;;;;;2095172;28;20365;-72
2023/10/16 01:24:27;;;;;;;7.18;5.75;;;7.30;99.90;;;;;;2095780;28;20025;-73
2023/10/16 01:25:27;;;;;;;7.70;6.00;;;7.30;99.90;;;;;;2101711;28;20027;-72
2023/10/16 01:26:28;;;;;;;7.07;5.70;;;7.30;99.90;;;;;;2099207;28;20024;-73
2023/10/16 01:27:32;;;;;;;6.97;6.07;;;7.30;99.90;;;;;;2106319;28;20453;-74
2023/10/16 01:28:32;;;;;;;6.68;5.65;;;7.30;99.90;;;;;;2106418;28;20063;-73
2023/10/16 01:29:34;;;;;;;6.13;5.47;;;7.30;99.90;;;;;;2099431;28;20486;-74
2023/10/16 01:30:34;;;;;;;6.57;5.45;;;7.30;99.90;;;;;;2099121;28;20395;-74
2023/10/16 01:31:40;;;;;;;7.82;6.03;;;7.30;99.90;;;;;;2100788;28;20097;-73
2023/10/16 01:32:40;;;;;;;6.95;6.00;;;7.30;99.90;;;;;;2098552;28;20423;-73
2023/10/16 01:33:44;;;;;;;11.95;6.53;;;7.30;99.90;;;;;;2097991;28;20040;-73
2023/10/16 01:34:46;;;;;;;7.95;6.18;;;7.30;99.90;;;;;;2101019;28;20475;-73
2023/10/16 01:35:47;;;;;;;7.43;5.25;;;7.30;99.90;;;;;;2100224;28;20065;-73
2023/10/16 01:36:51;;;;;;;7.75;5.55;;;7.30;99.90;;;;;;2099126;28;20036;-74
2023/10/16 01:37:53;;;;;;;6.80;5.50;;;7.30;99.90;;;;;;2098311;28;20547;-73
2023/10/16 01:38:54;;;;;;;7.70;6.47;;;7.30;99.90;;;;;;2098449;28;20353;-72
2023/10/16 01:39:56;;;;;;;7.63;6.32;;;7.30;99.90;;;;;;2099139;28;20020;-72
2023/10/16 01:41:13;;;;;;;6.22;5.38;;;7.30;99.90;;;;;;2100806;28;20116;-73
2023/10/16 01:42:15;;;;;;;6.20;4.85;;;7.30;99.90;;;;;;2101988;28;20035;-72
2023/10/16 01:43:16;;;;;;;5.85;5.20;;;7.30;99.90;;;;;;2091988;28;20112;-73
2023/10/16 01:44:18;;;;;;;8.15;6.50;;;7.20;99.90;;;;;;2094588;28;20027;-72
2023/10/16 01:45:20;;;;;;;7.00;5.88;;;7.20;99.90;;;;;;2100508;28;20047;-72
2023/10/16 01:46:20;;;;;;;7.53;6.32;;;7.20;99.90;;;;;;2095542;28;20190;-73
2023/10/16 01:47:21;;;;;;;6.03;5.22;;;7.20;99.90;;;;;;2097766;28;20471;-73
2023/10/16 01:48:21;;;;;;;7.05;6.05;;;7.20;99.90;;;;;;2098078;28;20107;-72
2023/10/16 01:49:25;;;;;;;7.72;6.20;;;7.20;99.90;;;;;;2100207;28;20115;-72
2023/10/16 01:50:27;;;;;;;7.43;5.55;;;7.20;99.90;;;;;;2101721;28;20464;-73
2023/10/16 01:51:30;;;;;;;7.15;5.68;;;7.20;99.90;;;;;;2101859;28;20035;-72
2023/10/16 01:52:33;;;;;;;5.82;5.22;;;7.20;99.90;;;;;;2100225;28;20066;-73
2023/10/16 01:53:39;;;;;;;8.18;5.93;;;7.20;99.90;;;;;;2102537;28;20546;-72
2023/10/16 01:54:42;;;;;;;6.90;5.97;;;7.20;99.90;;;;;;2099047;28;20033;-74
2023/10/16 01:55:51;;;;;;;6.15;5.55;;;7.20;99.90;;;;;;2098310;28;20016;-74
2023/10/16 01:56:51;;;;;;;7.95;5.60;;;7.20;99.90;;;;;;2098415;28;20036;-72
2023/10/16 01:57:53;;;;;;;8.70;6.50;;;7.10;99.90;;;;;;2090225;28;20033;-72
2023/10/16 01:58:54;;;;;;;7.20;6.50;;;7.10;99.90;;;;;;2094799;28;20032;-73
2023/10/16 01:59:55;;;;;;;7.63;6.20;;;7.10;99.90;;;;;;2101840;28;20028;-73
2023/10/16 02:00:56;;;;;;;9.73;5.72;;;7.10;99.90;;;;;;2097279;28;20024;-73
2023/10/16 02:01:57;;;;;;;7.50;6.35;;;7.10;99.90;;;;;;2099237;28;20031;-72
2023/10/16 02:02:57;;;;;;;9.50;6.35;;;7.10;99.90;;;;;;2099161;28;20472;-73
2023/10/16 02:04:01;;;;;;;7.97;6.05;;;7.10;99.90;;;;;;2101643;28;20020;-72
2023/10/16 02:05:01;;;;;;;6.63;5.90;;;7.10;99.90;;;;;;2102722;28;20639;-72
2023/10/16 02:06:02;;;;;;;6.82;5.60;;;7.10;99.90;;;;;;2098937;28;20367;-72
2023/10/16 02:07:04;;;;;;;7.20;6.03;;;7.10;99.90;;;;;;2101151;28;20174;-72
2023/10/16 02:08:07;;;;;;;5.95;5.07;;;7.10;99.90;;;;;;2093569;28;20115;-74
2023/10/16 02:09:13;;;;;;;6.78;5.72;;;7.10;99.90;;;;;;2094264;28;20041;-74
2023/10/16 02:10:13;;;;;;;7.03;5.80;;;7.10;99.90;;;;;;2099144;28;20094;-72
2023/10/16 02:11:16;;;;;;;9.95;5.93;;;7.10;99.90;;;;;;2097329;28;20036;-72
2023/10/16 02:12:16;;;;;;;8.50;6.78;;;7.00;99.90;;;;;;2099140;28;21057;-72
2023/10/16 02:13:17;;;;;;;9.07;6.43;;;7.00;99.90;;;;;;2099365;28;20419;-72
2023/10/16 02:14:20;;;;;;;9.52;6.65;;;7.00;99.90;;;;;;2097465;28;20044;-72
2023/10/16 02:15:21;;;;;;;7.80;6.05;;;7.00;99.90;;;;;;2099592;28;20077;-73
2023/10/16 02:16:25;;;;;;;6.20;5.53;;;7.00;99.90;;;;;;2097826;28;20024;-73
2023/10/16 02:17:26;;;;;;;9.00;6.53;;;7.00;99.90;;;;;;2098149;28;20028;-73
2023/10/16 02:18:36;;;;;;;6.88;5.65;;;7.00;99.90;;;;;;2100092;28;20041;-73
2023/10/16 02:19:36;;;;;;;8.40;5.60;;;7.00;99.90;;;;;;2096703;28;20045;-73
2023/10/16 02:20:38;;;;;;;8.07;6.15;;;7.00;99.90;;;;;;2098839;28;20333;-73
2023/10/16 02:21:40;;;;;;;6.72;5.65;;;7.00;99.90;;;;;;2098564;28;20491;-73
2023/10/16 02:22:41;;;;;;;6.13;5.53;;;7.00;99.90;;;;;;2096817;28;20020;-72
2023/10/16 02:23:44;;;;;;;6.68;6.07;;;7.00;99.90;;;;;;2098797;28;20021;-73
2023/10/16 02:24:49;;;;;;;6.80;6.10;;;6.90;99.90;;;;;;2099619;28;20024;-71
2023/10/16 02:25:50;;;;;;;7.95;6.82;;;6.90;99.90;;;;;;2101055;28;20078;-73
2023/10/16 02:26:57;;;;;;;8.25;6.20;;;6.90;99.90;;;;;;2103100;28;20502;-73
2023/10/16 02:27:58;;;;;;;6.75;5.90;;;6.90;99.90;;;;;;2102264;28;20506;-73
2023/10/16 02:29:00;;;;;;;8.48;6.15;;;6.90;99.90;;;;;;2093502;28;20036;-73
2023/10/16 02:30:20;;;;;;;7.07;6.03;;;6.90;99.90;;;;;;2091202;28;20530;-73
2023/10/16 02:31:20;;;;;;;6.60;6.00;;;6.90;99.90;;;;;;2097939;28;20028;-72
2023/10/16 02:32:22;;;;;;;6.10;5.50;;;6.90;99.90;;;;;;2098105;28;20476;-72
2023/10/16 02:33:26;;;;;;;7.72;6.28;;;6.90;99.90;;;;;;2100699;28;20072;-73
2023/10/16 02:34:27;;;;;;;7.57;6.75;;;6.90;99.90;;;;;;2101301;28;20032;-72
2023/10/16 02:35:28;;;;;;;7.97;7.15;;;6.90;99.90;;;;;;2099893;28;20070;-72
2023/10/16 02:36:29;;;;;;;7.55;6.47;;;6.90;99.90;;;;;;2097876;28;20028;-73
2023/10/16 02:37:30;;;;;;;7.95;6.75;;;6.90;99.90;;;;;;2099789;28;20067;-73
2023/10/16 02:38:30;;;;;;;8.90;6.80;;;6.90;99.90;;;;;;2097166;28;20028;-73
2023/10/16 02:39:37;;;;;;;7.80;6.28;;;6.90;99.90;;;;;;2094752;28;20077;-72
2023/10/16 02:40:39;;;;;;;7.90;6.20;;;6.90;99.90;;;;;;2098261;28;20032;-72
2023/10/16 02:41:41;;;;;;;9.23;6.80;;;6.80;99.90;;;;;;2102038;28;20028;-72
2023/10/16 02:42:42;;;;;;;6.80;6.10;;;6.90;99.90;;;;;;2092538;28;20025;-73
2023/10/16 02:43:45;;;;;;;7.28;6.57;;;6.80;99.90;;;;;;2094523;28;20055;-72
2023/10/16 02:44:46;;;;;;;9.07;6.22;;;6.90;99.90;;;;;;2102949;28;20055;-72
2023/10/16 02:45:51;;;;;;;8.02;6.93;;;6.90;99.90;;;;;;2100123;28;20027;-72
2023/10/16 02:46:52;;;;;;;9.57;6.32;;;6.90;99.90;;;;;;2092084;28;20522;-72
2023/10/16 02:47:54;;;;;;;7.60;6.90;;;6.90;99.90;;;;;;2099538;28;20438;-73
2023/10/16 02:48:55;;;;;;;6.75;6.15;;;6.80;99.90;;;;;;2104635;28;20080;-72
2023/10/16 02:49:56;;;;;;;7.85;6.45;;;6.80;99.90;;;;;;2104002;28;20548;-72
2023/10/16 02:50:57;;;;;;;9.77;7.75;;;6.80;99.90;;;;;;2098131;28;20020;-74
2023/10/16 02:51:57;;;;;;;7.60;6.30;;;6.80;99.90;;;;;;2096966;28;20119;-73
2023/10/16 02:52:58;;;;;;;8.55;7.00;;;6.80;99.90;;;;;;2101783;28;20593;-74
2023/10/16 02:54:00;;;;;;;8.80;6.80;;;6.80;99.90;;;;;;2093562;28;20033;-72
2023/10/16 02:55:01;;;;;;;11.00;8.00;;;6.80;99.90;;;;;;2099388;28;20538;-73
2023/10/16 02:56:05;;;;;;;6.32;5.30;;;6.80;99.90;;;;;;2099800;28;20059;-72
2023/10/16 02:57:06;;;;;;;9.07;7.07;;;6.80;99.90;;;;;;2101519;28;20101;-73
2023/10/16 02:58:11;;;;;;;8.73;7.78;;;6.80;99.90;;;;;;2094478;28;20568;-73
2023/10/16 02:59:11;;;;;;;11.45;8.32;;;6.80;99.90;;;;;;2101197;28;20028;-73
2023/10/16 03:00:25;;;;;;;11.23;7.07;;;6.80;99.90;;;;;;2106136;28;20502;-73
2023/10/16 03:01:26;;;;;;;9.32;7.15;;;6.80;99.90;;;;;;2097349;28;20066;-72
2023/10/16 03:02:27;;;;;;;7.97;6.35;;;6.80;99.90;;;;;;2097282;28;20093;-72
2023/10/16 03:03:28;;;;;;;7.30;6.28;;;6.80;99.90;;;;;;2098328;28;20417;-72
2023/10/16 03:04:29;;;;;;;9.35;7.20;;;6.80;99.90;;;;;;2098777;28;20029;-72
2023/10/16 03:05:29;;;;;;;7.88;6.78;;;6.80;99.90;;;;;;2098106;28;20024;-72
2023/10/16 03:06:31;;;;;;;8.82;6.95;;;6.80;99.90;;;;;;2096363;28;20029;-72
2023/10/16 03:07:31;;;;;;;8.10;6.68;;;6.80;99.90;;;;;;2102507;28;20636;-73
2023/10/16 03:08:32;;;;;;;8.65;6.80;;;6.80;99.90;;;;;;2093096;28;20603;-72
2023/10/16 03:09:33;;;;;;;9.57;7.00;;;6.80;99.90;;;;;;2098577;28;20085;-72
2023/10/16 03:10:36;;;;;;;7.88;6.88;;;6.80;99.90;;;;;;2097352;28;20031;-72
2023/10/16 03:11:37;;;;;;;8.90;7.45;;;6.80;99.90;;;;;;2097453;28;20020;-73
2023/10/16 03:12:37;;;;;;;9.60;7.28;;;6.80;99.90;;;;;;2097677;28;20066;-72
2023/10/16 03:13:38;;;;;;;9.05;7.00;;;6.80;99.90;;;;;;2098730;28;20028;-72
2023/10/16 03:14:57;;;;;;;10.40;7.65;;;6.80;99.90;;;;;;2098733;28;20036;-71
2023/10/16 03:16:04;;;;;;;7.32;6.25;;;6.80;99.90;;;;;;2099495;28;20035;-74
2023/10/16 03:17:09;;;;;;;8.77;7.80;;;6.70;99.90;;;;;;2101244;28;20057;-75
2023/10/16 03:18:17;;;;;;;8.00;6.93;;;6.70;99.90;;;;;;2103908;28;20026;-75
2023/10/16 03:19:21;;;;;;;8.00;6.68;;;6.70;99.90;;;;;;2098163;28;20553;-74
2023/10/16 03:20:35;;;;;;;8.43;7.35;;;6.70;99.90;;;;;;2097256;28;20459;-75
2023/10/16 03:21:39;;;;;;;9.45;8.45;;;6.70;99.90;;;;;;2101427;28;20206;-75
2023/10/16 03:22:40;;;;;;;9.27;7.30;;;6.70;99.90;;;;;;2101298;28;20471;-74
2023/10/16 03:23:50;;;;;;;7.90;7.03;;;6.70;99.90;;;;;;2098250;28;20337;-75
2023/10/16 03:24:52;;;;;;;10.13;7.53;;;6.80;99.90;;;;;;2098346;28;20027;-75
2023/10/16 03:25:52;;;;;;;9.32;7.57;;;6.70;99.90;;;;;;2098237;28;20102;-75
2023/10/16 03:26:57;;;;;;;11.02;9.07;;;6.70;99.90;;;;;;2100786;28;20016;-74
2023/10/16 03:27:57;;;;;;;12.27;8.40;;;6.70;99.90;;;;;;2102028;28;20024;-74
2023/10/16 03:29:00;;;;;;;10.60;8.35;;;6.70;99.90;;;;;;2098337;28;20070;-74
2023/10/16 03:30:00;;;;;;;9.07;8.15;;;6.70;99.90;;;;;;2099513;28;20090;-75
2023/10/16 03:31:03;;;;;;;10.00;9.00;;;6.70;99.90;;;;;;2087549;28;20025;-75
2023/10/16 03:32:04;;;;;;;10.90;8.63;;;6.70;99.90;;;;;;2092121;28;20275;-75
2023/10/16 03:33:05;;;;;;;11.40;7.88;;;6.70;99.90;;;;;;2098114;28;20032;-74
2023/10/16 03:34:11;;;;;;;9.10;7.88;;;6.70;99.90;;;;;;2096791;28;20046;-75
2023/10/16 03:35:14;;;;;;;8.40;7.50;;;6.70;99.90;;;;;;2098028;28;20034;-75
2023/10/16 03:36:15;;;;;;;10.23;7.95;;;6.70;99.90;;;;;;2098104;28;20027;-74
2023/10/16 03:37:16;;;;;;;10.20;8.38;;;6.70;99.90;;;;;;2102040;28;20497;-74
2023/10/16 03:38:28;;;;;;;10.63;9.18;;;6.70;99.90;;;;;;2101973;28;20063;-76
2023/10/16 03:39:31;;;;;;;10.52;8.15;;;6.70;99.90;;;;;;2103626;28;20710;-75
2023/10/16 03:40:32;;;;;;;9.07;8.15;;;6.70;99.90;;;;;;2094509;28;20033;-75
2023/10/16 03:41:32;;;;;;;10.52;8.25;;;6.70;99.90;;;;;;2099581;28;20028;-75
2023/10/16 03:42:33;;;;;;;9.43;8.00;;;6.70;99.90;;;;;;2100542;28;20363;-74
2023/10/16 03:43:33;;;;;;;10.57;8.48;;;6.70;99.90;;;;;;2098947;28;20016;-75
2023/10/16 03:44:34;;;;;;;9.52;8.15;;;6.70;99.90;;;;;;2098659;28;20028;-74
2023/10/16 03:45:39;;;;;;;8.32;7.53;;;6.70;99.90;;;;;;2097212;28;20529;-75
2023/10/16 03:46:41;;;;;;;9.15;7.97;;;6.70;99.90;;;;;;2099857;28;20024;-75
2023/10/16 03:47:42;;;;;;;8.68;7.78;;;6.70;99.90;;;;;;2097132;28;20146;-75
2023/10/16 03:48:44;;;;;;;10.73;8.18;;;6.70;99.90;;;;;;2099732;28;20463;-75
2023/10/16 03:49:46;;;;;;;9.60;8.60;;;6.70;99.90;;;;;;2098817;28;20028;-76
2023/10/16 03:50:47;;;;;;;9.25;8.27;;;6.70;99.90;;;;;;2096943;28;20443;-76
2023/10/16 03:51:48;;;;;;;11.63;9.75;;;6.70;99.90;;;;;;2097777;28;20051;-76
2023/10/16 03:52:49;;;;;;;10.73;8.40;;;6.70;99.90;;;;;;2096619;28;20112;-75
2023/10/16 03:53:53;;;;;;;9.35;7.88;;;6.70;99.90;;;;;;2098926;28;20024;-76
2023/10/16 03:54:54;;;;;;;11.07;9.18;;;6.70;99.90;;;;;;2096938;28;20052;-75
2023/10/16 03:55:54;;;;;;;10.02;8.48;;;6.70;99.90;;;;;;2097022;28;20029;-76
2023/10/16 03:56:55;;;;;;;10.05;8.90;;;6.70;99.90;;;;;;2106783;28;20460;-75
2023/10/16 03:57:56;;;;;;;9.85;8.75;;;6.70;99.90;;;;;;2098098;28;20041;-76
2023/10/16 03:58:57;;;;;;;10.57;9.02;;;6.70;99.90;;;;;;2097037;28;20115;-75
2023/10/16 03:59:58;;;;;;;10.88;8.75;;;6.70;99.90;;;;;;2097383;28;20023;-74
2023/10/16 04:01:07;;;;;;;10.82;8.40;;;6.70;99.90;;;;;;2105235;28;20028;-76
2023/10/16 04:02:16;;;;;;;11.38;9.48;;;6.70;99.90;;;;;;2104648;28;20024;-75
2023/10/16 04:03:18;;;;;;;10.65;9.57;;;6.70;99.90;;;;;;2102239;28;20714;-75
2023/10/16 04:04:20;;;;;;;11.30;8.98;;;6.60;99.90;;;;;;2091960;28;20567;-76
2023/10/16 04:05:30;;;;;;;11.75;8.52;;;6.70;99.90;;;;;;2098187;28;21034;-75
2023/10/16 04:06:30;;;;;;;10.52;8.40;;;6.70;99.90;;;;;;2096196;28;20024;-76
2023/10/16 04:07:31;;;;;;;10.50;9.48;;;6.60;99.90;;;;;;2098316;28;20027;-75
2023/10/16 04:08:35;;;;;;;10.57;9.48;;;6.70;99.90;;;;;;2097037;28;20020;-74
2023/10/16 04:09:40;;;;;;;9.63;8.57;;;6.70;99.90;;;;;;2098667;28;20119;-75
2023/10/16 04:10:47;;;;;;;9.95;8.70;;;6.70;99.90;;;;;;2097474;28;20032;-75
2023/10/16 04:11:54;;;;;;;10.85;8.85;;;6.70;99.90;;;;;;2097467;28;20033;-75
2023/10/16 04:12:55;;;;;;;12.82;9.25;;;6.70;99.90;;;;;;2097633;28;20453;-75
2023/10/16 04:13:56;;;;;;;12.32;9.45;;;6.70;99.90;;;;;;2099888;28;20036;-74
2023/10/16 04:15:03;;;;;;;11.80;9.40;;;6.70;99.90;;;;;;2099457;28;20028;-75
2023/10/16 04:17:10;;;;;;;10.57;9.45;;;6.70;99.90;;;;;;2099590;28;20402;-74
2023/10/16 04:20:43;;;;;;;11.68;10.48;;;6.60;99.90;;;;;;2099617;28;20386;-77
2023/10/16 04:21:50;;;;;;;10.48;9.23;;;6.60;99.90;;;;;;2098689;28;20495;-77
2023/10/16 04:22:58;;;;;;;11.45;9.88;;;6.60;99.90;;;;;;2102979;28;20061;-75
2023/10/16 04:23:58;;;;;;;11.40;8.50;;;6.60;99.90;;;;;;2095877;28;20033;-75
2023/10/16 04:24:59;;;;;;;10.90;9.13;;;6.60;99.90;;;;;;2101419;28;20531;-75
2023/10/16 04:28:28;;;;;;;11.02;9.30;;;6.60;99.90;;;;;;2101531;28;20109;-73
2023/10/16 04:29:29;;;;;;;10.80;9.60;;;6.60;99.90;;;;;;2099608;28;20029;-72
2023/10/16 04:32:56;;;;;;;13.35;9.43;;;6.60;99.90;;;;;;2097916;28;20403;-73
2023/10/16 04:34:13;;;;;;;12.80;9.68;;;6.60;99.90;;;;;;2099849;28;20028;-72
2023/10/16 04:35:51;;;;;;;10.63;9.20;;;6.60;99.90;;;;;;2101244;28;20066;-74
2023/10/16 04:38:31;;;;;;;11.02;9.98;;;6.60;99.90;;;;;;2099681;28;20036;-73
2023/10/16 04:46:19;;;;;;;13.98;12.25;;;6.50;99.90;;;;;;2098496;28;20024;-73
2023/10/16 04:47:24;;;;;;;16.23;11.80;;;6.60;99.90;;;;;;2101173;28;20119;-72
2023/10/16 04:48:59;;;;;;;15.38;11.88;;;6.60;99.90;;;;;;2095112;28;20071;-73
2023/10/16 04:50:09;;;;;;;14.27;12.77;;;6.60;99.90;;;;;;2099710;28;20435;-73
2023/10/16 04:51:16;;;;;;;17.85;12.63;;;6.50;99.90;;;;;;2098201;28;20679;-74
2023/10/16 04:52:36;;;;;;;14.38;11.25;;;6.60;99.90;;;;;;2100396;28;20020;-73
2023/10/16 04:53:48;;;;;;;;;;;6.60;99.90;;;;;;2103710;28;20115;-74
2023/10/16 04:55:02;;;;;;;12.93;9.18;;;6.50;99.90;;;;;;2102337;28;19908;-72
2023/10/16 04:56:16;;;;;;;11.55;9.90;;;6.50;99.90;;;;;;2104046;28;20039;-73
2023/10/16 04:59:47;;;;;;;12.02;9.80;;;6.50;99.90;;;;;;2099849;28;20029;-72
2023/10/16 05:00:57;;;;;;;12.10;9.00;;;6.60;99.90;;;;;;2098525;28;20032;-72
2023/10/16 05:02:15;;;;;;;10.70;9.60;;;6.60;99.90;;;;;;2095736;28;20033;-73
2023/10/16 05:03:25;;;;;;;12.30;10.82;;;6.60;99.90;;;;;;2096691;28;20491;-73
2023/10/16 05:04:59;;;;;;;;;;;6.60;99.90;;;;;;2103760;28;20126;-73
2023/10/16 05:07:16;;;;;;;15.68;9.98;;;6.50;99.90;;;;;;2097118;28;20029;-72
2023/10/16 05:08:31;;;;;;;11.70;10.50;;;6.50;99.90;;;;;;2096749;28;20025;-72
2023/10/16 05:11:24;;;;;;;10.75;9.18;;;6.60;99.90;;;;;;2099566;28;20056;-75
2023/10/16 05:14:11;;;;;;;10.82;9.27;;;6.60;99.90;;;;;;2096300;28;20025;-74
2023/10/16 05:15:37;;;;;;;10.88;9.75;;;6.60;99.90;;;;;;2087469;28;20096;-74
2023/10/16 05:18:11;;;;;;;11.00;9.35;;;6.60;99.90;;;;;;2097788;28;20056;-76
2023/10/16 06:14:20;;;;;;;16.73;12.65;;;6.70;99.90;;;;;;2096614;28;20028;-77
2023/10/16 06:15:21;;;;;;;14.45;12.02;;;6.70;99.90;;;;;;2096570;28;20051;-77
2023/10/16 06:16:22;;;;;;;14.02;12.23;;;6.80;99.90;;;;;;2098830;28;20024;-77
2023/10/16 06:17:23;;;;;;;16.70;13.07;;;6.80;99.90;;;;;;2097804;28;20055;-77
2023/10/16 06:18:27;;;;;;;15.00;13.40;;;6.80;99.90;;;;;;2101703;28;20032;-77
2023/10/16 06:19:28;;;;;;;13.73;11.82;;;6.80;99.90;;;;;;2099983;28;20050;-77
2023/10/16 06:20:31;;;;;;;14.63;12.52;;;6.80;99.90;;;;;;2099946;28;20125;-77
2023/10/16 06:21:32;;;;;;;15.25;13.10;;;6.80;99.90;;;;;;2098308;28;20051;-77
2023/10/16 06:22:32;;;;;;;18.45;15.05;;;6.90;99.90;;;;;;2100945;28;20040;-77
2023/10/16 06:23:33;;;;;;;17.25;14.35;;;6.90;99.90;;;;;;2098913;28;20056;-77
2023/10/16 06:24:36;;;;;;;16.33;13.63;;;6.90;99.90;;;;;;2102868;28;20904;-77
2023/10/16 06:25:37;;;;;;;17.73;14.93;;;6.90;99.90;;;;;;2099618;28;20028;-77
2023/10/16 06:26:38;;;;;;;16.13;14.45;;;6.90;99.90;;;;;;2102502;28;20407;-76
2023/10/16 06:27:41;;;;;;;18.75;14.25;;;6.90;99.90;;;;;;2103197;28;20028;-76
2023/10/16 06:28:51;;;;;;;18.63;14.55;;;7.00;99.90;;;;;;2099748;28;20055;-77
2023/10/16 06:29:53;;;;;;;;;;;7.00;99.90;;;;;;2099603;28;20399;-76
2023/10/16 06:30:54;;;;;;;18.40;16.40;;;6.90;99.90;;;;;;2102872;28;19908;-77
2023/10/16 06:31:58;;;;;;;20.60;16.30;;;6.90;99.90;;;;;;2103022;28;20123;-77
2023/10/16 06:33:02;;;;;;;18.02;14.60;;;7.00;99.90;;;;;;2098914;28;20036;-77
2023/10/16 06:34:05;;;;;;;16.90;14.57;;;7.00;99.90;;;;;;2098994;28;20048;-77
2023/10/16 06:35:08;;;;;;;20.27;15.18;;;7.00;99.90;;;;;;2092081;28;20025;-77
2023/10/16 06:36:10;;;;;;;19.98;15.95;;;7.00;99.90;;;;;;2094837;28;20032;-77
2023/10/16 06:37:16;;;;;;;17.02;14.50;;;7.10;99.90;;;;;;2100985;28;20024;-76
2023/10/16 06:38:20;;;;;;;17.25;14.45;;;7.10;99.90;;;;;;2102072;28;20052;-77
2023/10/16 06:39:28;;;;;;;19.80;16.85;;;7.10;99.90;;;;;;2100872;28;20020;-77
2023/10/16 06:40:32;;;;;;;19.75;15.55;;;7.10;99.90;;;;;;2101207;28;20467;-77
2023/10/16 06:41:33;;;;;;;19.33;16.50;;;7.20;99.90;;;;;;2103226;28;20020;-77
2023/10/16 06:42:35;;;;;;;15.65;14.05;;;7.20;99.90;;;;;;2099301;28;20052;-77
2023/10/16 06:43:35;;;;;;;19.13;16.52;;;7.20;99.90;;;;;;2100204;28;20025;-77
2023/10/16 06:44:36;;;;;;;19.67;15.70;;;7.20;99.90;;;;;;2098900;28;20040;-77
2023/10/16 06:46:39;;;;;;;16.75;14.18;;;7.20;99.90;;;;;;2094093;28;20108;-76
2023/10/16 06:47:12;;;;;;;19.10;15.10;;;7.30;99.90;;;;;;2092140;28;20036;-76
2023/10/16 06:48:15;;;;;;;21.13;16.77;;;7.20;99.90;;;;;;2096598;28;20035;-76
2023/10/16 06:49:16;;;;;;;22.23;16.42;;;7.30;99.90;;;;;;2097362;28;20027;-76
2023/10/16 06:51:26;;;;;;;24.92;18.42;;;7.30;99.90;;;;;;2098304;28;20471;-77
2023/10/16 06:52:26;;;;;;;22.48;17.58;;;7.30;99.90;;;;;;2094659;28;20368;-77
2023/10/16 06:53:30;;;;;;;24.02;18.13;;;7.40;99.90;;;;;;2097368;28;20016;-76
2023/10/16 06:54:37;;;;;;;21.27;17.38;;;7.40;99.90;;;;;;2097985;28;20111;-77
2023/10/16 06:55:38;;;;;;;19.75;17.55;;;7.40;99.90;;;;;;2098218;28;20102;-77